Time;durP1;ratioP1;P1;durP2;ratioP2;P2;SDS_P1;SDS_P2;PMS_P1;PMS_P2;Temp;Humidity;BMP_temperature;BMP_pressure;BME280_temperature;BME280_humidity;BME280_pressure;Samples;Min_cycle;Max_cycle;Signal;HPM_P1;HPM_P2
2023/05/19 00:01:37;;;;;;;12.52;4.75;;;9.90;99.90;;;;;;5069876;28;20119;-62
2023/05/19 00:04:04;;;;;;;14.18;5.15;;;9.90;99.90;;;;;;5051541;28;20116;-62
2023/05/19 00:06:31;;;;;;;11.18;5.25;;;9.90;99.90;;;;;;5036747;28;20049;-62
2023/05/19 00:08:59;;;;;;;11.35;5.25;;;9.90;99.90;;;;;;5054658;28;20487;-62
2023/05/19 00:11:26;;;;;;;15.20;5.35;;;9.80;99.90;;;;;;5042458;28;20045;-62
2023/05/19 00:13:57;;;;;;;9.63;4.80;;;9.80;99.90;;;;;;5054459;28;20062;-62
2023/05/19 00:16:24;;;;;;;13.48;5.20;;;9.70;99.90;;;;;;5054126;28;20052;-62
2023/05/19 00:18:50;;;;;;;13.55;5.13;;;9.80;99.90;;;;;;5072068;28;20032;-62
2023/05/19 00:21:16;;;;;;;14.43;5.55;;;9.80;99.90;;;;;;5072721;28;20112;-62
2023/05/19 00:23:42;;;;;;;17.17;5.72;;;9.70;99.90;;;;;;5069506;28;20115;-62
2023/05/19 00:26:07;;;;;;;11.48;5.03;;;9.80;99.90;;;;;;5064831;28;20040;-62
2023/05/19 00:28:33;;;;;;;10.18;4.68;;;9.70;99.90;;;;;;5070995;28;20044;-62
2023/05/19 00:31:00;;;;;;;14.25;5.30;;;9.70;99.90;;;;;;5054648;28;20036;-62
2023/05/19 00:33:26;;;;;;;17.52;5.55;;;9.70;99.90;;;;;;5054235;28;20047;-62
2023/05/19 00:35:52;;;;;;;11.25;5.07;;;9.60;99.90;;;;;;5037309;28;20177;-62
2023/05/19 00:38:17;;;;;;;13.57;5.20;;;9.60;99.90;;;;;;5064775;28;20074;-62
2023/05/19 00:40:44;;;;;;;10.02;4.55;;;9.60;99.90;;;;;;5069679;28;20031;-62
2023/05/19 00:43:09;;;;;;;11.18;5.15;;;9.60;99.90;;;;;;5047749;28;20044;-62
2023/05/19 00:45:35;;;;;;;13.48;5.50;;;9.50;99.90;;;;;;5070536;28;20051;-62
2023/05/19 00:48:01;;;;;;;11.05;5.10;;;9.50;99.90;;;;;;5072426;28;20101;-62
2023/05/19 00:50:27;;;;;;;10.85;4.82;;;10.20;99.90;;;;;;5062000;28;20044;-62
2023/05/19 00:52:53;;;;;;;11.75;5.47;;;9.50;99.90;;;;;;5059665;28;20048;-62
2023/05/19 00:55:24;;;;;;;11.25;4.97;;;9.40;99.90;;;;;;5065447;28;20119;-62
2023/05/19 00:57:50;;;;;;;13.15;5.40;;;9.40;99.90;;;;;;5043571;28;20495;-62
2023/05/19 01:00:16;;;;;;;13.40;5.45;;;9.40;99.90;;;;;;5065970;28;20043;-62
2023/05/19 01:02:42;;;;;;;11.15;5.30;;;9.40;99.90;;;;;;5071568;28;20075;-62
2023/05/19 01:05:08;;;;;;;12.48;5.38;;;9.40;99.90;;;;;;5053204;28;20083;-62
2023/05/19 01:07:34;;;;;;;15.20;5.88;;;9.30;99.90;;;;;;5047396;28;20464;-62
2023/05/19 01:09:59;;;;;;;9.93;5.53;;;9.30;99.90;;;;;;5045394;28;20079;-62
2023/05/19 01:12:26;;;;;;;11.63;5.70;;;9.30;99.90;;;;;;5067547;28;20048;-62
2023/05/19 01:14:51;;;;;;;9.90;5.55;;;9.30;99.90;;;;;;5052935;28;20194;-62
2023/05/19 01:17:29;;;;;;;14.95;5.80;;;9.30;99.90;;;;;;5052925;28;20123;-62
2023/05/19 01:20:24;;;;;;;17.27;5.55;;;9.30;99.90;;;;;;5071689;28;20040;-62
2023/05/19 01:23:29;;;;;;;14.18;5.50;;;9.30;99.90;;;;;;5052242;28;20068;-62
2023/05/19 01:26:11;;;;;;;14.00;5.80;;;9.20;99.90;;;;;;5022718;28;20044;-62
2023/05/19 01:29:20;;;;;;;11.82;6.18;;;9.20;99.90;;;;;;5052764;28;20078;-62
2023/05/19 01:31:49;;;;;;;15.18;5.35;;;9.20;99.90;;;;;;5065323;28;20044;-62
2023/05/19 01:34:15;;;;;;;14.00;5.88;;;9.20;99.90;;;;;;5065328;28;20502;-62
2023/05/19 01:36:43;;;;;;;13.18;5.80;;;9.20;99.90;;;;;;5056376;28;20076;-62
2023/05/19 01:39:10;;;;;;;11.40;5.32;;;9.20;99.90;;;;;;5050817;28;20051;-62
2023/05/19 01:41:37;;;;;;;11.93;5.32;;;9.20;99.90;;;;;;5062572;28;20399;-62
2023/05/19 01:44:03;;;;;;;13.02;5.38;;;9.20;99.90;;;;;;5062981;28;20511;-62
2023/05/19 01:46:28;;;;;;;12.30;5.80;;;9.10;99.90;;;;;;5052898;28;20129;-62
2023/05/19 01:48:55;;;;;;;14.65;5.68;;;9.10;99.90;;;;;;5070898;28;20052;-63
2023/05/19 01:51:20;;;;;;;12.77;5.72;;;9.10;99.90;;;;;;5046863;28;20122;-62
2023/05/19 01:53:46;;;;;;;14.50;5.60;;;9.10;99.90;;;;;;5066759;28;20473;-62
2023/05/19 01:56:18;;;;;;;16.98;6.03;;;9.10;99.90;;;;;;5053066;28;20047;-62
2023/05/19 01:58:52;;;;;;;11.90;5.57;;;9.10;99.90;;;;;;5050935;28;20045;-62
2023/05/19 02:01:51;;;;;;;10.15;5.40;;;9.10;99.90;;;;;;5049746;28;20048;-63
2023/05/19 02:04:54;;;;;;;14.65;5.72;;;9.10;99.90;;;;;;5044207;28;20307;-62
2023/05/19 02:07:20;;;;;;;;;;;9.10;99.90;;;;;;5067825;28;20048;-62
2023/05/19 02:09:53;;;;;;;13.68;5.53;;;9.10;99.90;;;;;;5048836;28;19917;-62
2023/05/19 02:12:32;;;;;;;18.55;6.35;;;9.10;99.90;;;;;;5065933;28;20372;-62
2023/05/19 02:15:03;;;;;;;16.48;6.47;;;9.10;99.90;;;;;;5051954;28;20079;-62
2023/05/19 02:17:40;;;;;;;13.47;6.60;;;9.10;99.90;;;;;;5070490;28;20167;-62
2023/05/19 02:20:08;;;;;;;14.02;5.90;;;9.00;99.90;;;;;;5051656;28;20111;-62
2023/05/19 02:22:34;;;;;;;14.13;5.95;;;9.00;99.90;;;;;;5067834;28;20029;-62
2023/05/19 02:25:00;;;;;;;12.85;5.75;;;9.00;99.90;;;;;;5070137;28;20036;-62
2023/05/19 02:27:25;;;;;;;12.18;6.00;;;9.00;99.90;;;;;;5052284;28;20040;-62
2023/05/19 02:29:51;;;;;;;16.48;5.43;;;9.00;99.90;;;;;;5070374;28;20047;-62
2023/05/19 02:32:17;;;;;;;11.90;5.55;;;9.00;99.90;;;;;;5067756;28;20043;-62
2023/05/19 02:34:44;;;;;;;14.95;6.20;;;9.00;99.90;;;;;;5060176;28;20036;-62
2023/05/19 02:37:14;;;;;;;12.68;5.50;;;9.00;99.90;;;;;;5044250;28;20044;-62
2023/05/19 02:39:40;;;;;;;12.43;6.20;;;9.00;99.90;;;;;;5067780;28;20107;-62
2023/05/19 02:42:06;;;;;;;14.23;5.93;;;9.00;99.90;;;;;;5063284;28;20123;-62
2023/05/19 02:44:31;;;;;;;16.67;5.57;;;9.00;99.90;;;;;;5048432;28;20121;-62
2023/05/19 02:46:57;;;;;;;15.68;5.93;;;9.00;99.90;;;;;;5051758;28;20048;-62
2023/05/19 02:49:23;;;;;;;14.07;5.68;;;8.90;99.90;;;;;;5068949;28;20494;-62
2023/05/19 02:51:48;;;;;;;17.65;5.75;;;8.90;99.90;;;;;;5058526;28;20025;-62
2023/05/19 02:54:14;;;;;;;12.05;5.78;;;8.90;99.90;;;;;;5069707;28;20373;-62
2023/05/19 02:56:39;;;;;;;14.60;5.85;;;8.90;99.90;;;;;;5052637;28;20123;-62
2023/05/19 02:59:05;;;;;;;15.15;6.15;;;8.90;99.90;;;;;;5064906;28;20082;-62
2023/05/19 03:01:33;;;;;;;14.00;5.50;;;8.90;99.90;;;;;;5069973;28;20074;-62
2023/05/19 03:03:59;;;;;;;16.65;6.25;;;8.90;99.90;;;;;;5048964;28;20032;-62
2023/05/19 03:06:25;;;;;;;15.70;6.05;;;8.90;99.90;;;;;;5048591;28;20044;-62
2023/05/19 03:08:50;;;;;;;17.35;6.00;;;8.90;99.90;;;;;;5065928;28;20043;-62
2023/05/19 03:11:16;;;;;;;15.10;5.65;;;8.90;99.90;;;;;;5053731;28;20116;-62
2023/05/19 03:13:42;;;;;;;14.05;5.90;;;8.90;99.90;;;;;;5069830;28;20486;-62
2023/05/19 03:16:07;;;;;;;11.45;5.28;;;8.90;99.90;;;;;;5068167;28;20111;-62
2023/05/19 03:18:33;;;;;;;14.90;6.32;;;8.90;99.90;;;;;;5051413;28;20049;-62
2023/05/19 03:20:59;;;;;;;14.40;6.45;;;8.90;99.90;;;;;;5069765;28;20076;-62
2023/05/19 03:23:25;;;;;;;14.73;5.90;;;8.90;99.90;;;;;;5062278;28;20043;-62
2023/05/19 03:25:53;;;;;;;14.25;6.55;;;8.80;99.90;;;;;;5065415;28;20033;-62
2023/05/19 03:28:18;;;;;;;14.18;5.70;;;8.80;99.90;;;;;;5069845;28;20106;-62
2023/05/19 03:30:44;;;;;;;15.15;5.85;;;8.80;99.90;;;;;;5063407;28;20490;-62
2023/05/19 03:33:10;;;;;;;16.98;6.15;;;8.80;99.90;;;;;;5063756;28;20047;-62
2023/05/19 03:35:36;;;;;;;16.15;5.50;;;8.80;99.90;;;;;;5064548;28;20487;-62
2023/05/19 03:38:02;;;;;;;16.17;6.28;;;8.70;99.90;;;;;;5053318;28;20041;-62
2023/05/19 03:40:27;;;;;;;12.40;5.95;;;8.70;99.90;;;;;;5055818;28;20112;-62
2023/05/19 03:42:53;;;;;;;12.07;6.28;;;8.70;99.90;;;;;;5042251;28;20040;-62
2023/05/19 03:45:19;;;;;;;13.45;5.78;;;8.70;99.90;;;;;;5067847;28;20033;-62
2023/05/19 03:47:46;;;;;;;14.40;5.90;;;8.70;99.90;;;;;;5062055;28;20207;-62
2023/05/19 03:50:12;;;;;;;16.67;6.72;;;8.70;99.90;;;;;;5053361;28;20564;-62
2023/05/19 03:52:38;;;;;;;11.95;6.43;;;8.70;99.90;;;;;;5044607;28;20048;-62
2023/05/19 03:55:05;;;;;;;17.63;7.32;;;8.70;99.90;;;;;;5073043;28;20049;-62
2023/05/19 03:57:32;;;;;;;13.93;6.63;;;8.60;99.90;;;;;;5073478;28;20449;-62
2023/05/19 03:59:58;;;;;;;17.63;6.15;;;8.60;99.90;;;;;;5054839;28;20127;-62
2023/05/19 04:02:24;;;;;;;16.33;6.18;;;8.60;99.90;;;;;;5065870;28;20125;-62
2023/05/19 04:04:49;;;;;;;16.45;5.85;;;8.60;99.90;;;;;;5059031;28;20498;-62
2023/05/19 04:07:15;;;;;;;16.30;6.30;;;8.60;99.90;;;;;;5054895;28;20053;-62
2023/05/19 04:09:41;;;;;;;12.90;6.35;;;8.60;99.90;;;;;;5062436;28;20494;-62
2023/05/19 04:12:07;;;;;;;15.40;7.00;;;8.60;99.90;;;;;;5069904;28;20105;-62
2023/05/19 04:14:33;;;;;;;16.17;6.53;;;8.60;99.90;;;;;;5072540;28;20044;-62
2023/05/19 04:16:58;;;;;;;17.48;6.03;;;8.60;99.90;;;;;;5054600;28;20594;-62
2023/05/19 04:19:24;;;;;;;17.25;6.18;;;8.60;99.90;;;;;;5053938;28;20129;-62
2023/05/19 04:21:50;;;;;;;15.68;6.45;;;8.60;99.90;;;;;;5069642;28;20115;-62
2023/05/19 04:24:15;;;;;;;15.45;6.05;;;8.60;99.90;;;;;;5072571;28;20036;-62
2023/05/19 04:26:44;;;;;;;13.15;7.10;;;8.60;99.90;;;;;;5072781;28;20044;-62
2023/05/19 04:29:12;;;;;;;16.00;6.60;;;8.70;99.90;;;;;;5054493;28;20161;-62
2023/05/19 04:31:39;;;;;;;15.10;6.50;;;8.70;99.90;;;;;;5052955;28;20482;-62
2023/05/19 04:34:06;;;;;;;15.80;6.10;;;8.70;99.90;;;;;;5069784;28;20036;-62
2023/05/19 04:36:32;;;;;;;11.85;6.38;;;8.70;99.90;;;;;;5072755;28;20040;-62
2023/05/19 04:39:05;;;;;;;16.83;6.57;;;8.70;99.90;;;;;;5054285;28;20124;-62
2023/05/19 04:41:32;;;;;;;16.83;7.38;;;8.70;99.90;;;;;;5072638;28;20483;-62
2023/05/19 04:43:58;;;;;;;17.08;6.90;;;8.70;99.90;;;;;;5053864;28;20033;-62
2023/05/19 04:46:24;;;;;;;14.18;6.68;;;8.70;99.90;;;;;;5071912;28;20545;-62
2023/05/19 04:48:51;;;;;;;14.30;6.57;;;8.70;99.90;;;;;;5072235;28;20494;-62
2023/05/19 04:51:18;;;;;;;16.13;7.10;;;8.80;99.90;;;;;;5072184;28;20037;-62
2023/05/19 04:53:44;;;;;;;14.52;6.65;;;8.80;99.90;;;;;;5054010;28;20150;-62
2023/05/19 04:56:13;;;;;;;15.32;6.82;;;8.80;99.90;;;;;;5044383;28;20148;-62
2023/05/19 04:58:40;;;;;;;15.52;7.32;;;8.80;99.90;;;;;;5049145;28;20490;-62
2023/05/19 05:01:06;;;;;;;13.55;6.25;;;8.90;99.90;;;;;;5050782;28;20089;-62
2023/05/19 05:03:33;;;;;;;15.23;6.97;;;8.90;99.90;;;;;;5053338;28;20071;-62
2023/05/19 05:05:58;;;;;;;16.65;6.78;;;8.90;99.90;;;;;;5071179;28;20041;-62
2023/05/19 05:08:24;;;;;;;17.70;7.57;;;8.90;99.90;;;;;;5063390;28;20043;-62
2023/05/19 05:10:51;;;;;;;15.40;7.03;;;9.00;99.90;;;;;;5046059;28;20046;-62
2023/05/19 05:13:22;;;;;;;17.00;7.15;;;8.90;99.90;;;;;;5071318;28;20518;-62
2023/05/19 05:15:50;;;;;;;15.57;7.28;;;9.00;99.90;;;;;;5068450;28;20551;-62
2023/05/19 05:18:16;;;;;;;15.88;7.18;;;9.00;99.90;;;;;;5065370;28;20045;-62
2023/05/19 05:20:43;;;;;;;12.88;7.03;;;9.00;99.90;;;;;;5064111;28;20043;-62
2023/05/19 05:23:13;;;;;;;17.13;7.40;;;9.00;99.90;;;;;;5046131;28;20487;-62
2023/05/19 05:25:39;;;;;;;13.25;7.18;;;9.00;99.90;;;;;;5064808;28;20029;-62
2023/05/19 05:28:05;;;;;;;15.52;7.20;;;9.00;99.90;;;;;;5078229;22;20043;-64
2023/05/19 05:30:32;;;;;;;20.20;8.02;;;9.10;99.90;;;;;;4990437;28;20042;-61
2023/05/19 05:32:58;;;;;;;18.45;7.50;;;9.10;99.90;;;;;;4992028;28;20056;-64
2023/05/19 05:35:24;;;;;;;16.38;7.68;;;9.20;99.90;;;;;;4988638;28;20042;-64
2023/05/19 05:37:49;;;;;;;19.88;8.05;;;9.20;99.90;;;;;;4990888;28;20049;-63
2023/05/19 05:40:15;;;;;;;17.60;8.15;;;9.20;99.90;;;;;;4986046;28;20125;-64
2023/05/19 05:42:41;;;;;;;22.00;7.97;;;9.20;99.90;;;;;;4988126;28;20030;-64
2023/05/19 05:45:07;;;;;;;16.65;6.95;;;9.30;99.90;;;;;;4970382;28;20100;-62
2023/05/19 05:47:36;;;;;;;15.77;7.50;;;9.20;99.90;;;;;;4988419;28;20496;-64
2023/05/19 05:50:03;;;;;;;15.05;6.70;;;9.30;99.90;;;;;;4982464;28;20038;-64
2023/05/19 05:52:29;;;;;;;16.38;7.60;;;9.30;99.90;;;;;;4984384;28;20508;-64
2023/05/19 05:54:55;;;;;;;15.95;7.05;;;9.30;99.90;;;;;;4976195;28;20077;-64
2023/05/19 05:57:21;;;;;;;17.90;7.38;;;9.30;99.90;;;;;;4977097;28;20038;-64
2023/05/19 05:59:47;;;;;;;16.65;7.57;;;9.40;99.90;;;;;;4988057;28;20038;-64
2023/05/19 06:02:13;;;;;;;20.10;7.20;;;9.40;99.90;;;;;;4991348;28;20074;-64
2023/05/19 06:04:42;;;;;;;16.83;7.30;;;9.40;99.90;;;;;;4991041;28;20034;-64
2023/05/19 06:07:08;;;;;;;14.73;7.47;;;9.50;99.90;;;;;;4974166;28;20400;-64
2023/05/19 06:09:34;;;;;;;15.23;6.55;;;9.50;99.90;;;;;;4962082;28;20059;-62
2023/05/19 06:12:00;;;;;;;15.18;6.85;;;9.50;99.90;;;;;;4985918;28;20046;-64
2023/05/19 06:14:25;;;;;;;15.52;6.60;;;9.50;99.90;;;;;;4982881;28;20049;-65
2023/05/19 06:16:51;;;;;;;13.60;6.78;;;9.60;99.90;;;;;;4986134;28;20068;-64
2023/05/19 06:19:18;;;;;;;15.15;7.13;;;9.60;99.90;;;;;;4987628;28;20042;-64
2023/05/19 06:21:44;;;;;;;13.57;6.85;;;9.60;99.90;;;;;;4968127;28;20640;-65
2023/05/19 06:24:10;;;;;;;16.73;6.60;;;9.70;99.90;;;;;;4985301;28;20096;-65
2023/05/19 06:26:35;;;;;;;12.57;6.65;;;9.70;99.90;;;;;;4983799;28;20511;-64
2023/05/19 06:29:01;;;;;;;18.02;7.35;;;9.70;99.90;;;;;;4970327;28;20404;-65
2023/05/19 06:31:27;;;;;;;15.15;7.03;;;9.80;99.90;;;;;;4987813;28;20492;-63
2023/05/19 06:33:53;;;;;;;14.75;7.20;;;9.90;99.90;;;;;;4987143;28;20046;-64
2023/05/19 06:36:18;;;;;;;17.02;7.00;;;9.90;99.90;;;;;;4984655;28;20072;-63
2023/05/19 06:38:44;;;;;;;12.80;6.03;;;9.90;99.90;;;;;;4971303;28;20513;-65
2023/05/19 06:41:10;;;;;;;18.30;6.72;;;10.00;99.90;;;;;;4973986;28;20046;-65
2023/05/19 06:43:35;;;;;;;16.27;6.45;;;10.00;99.90;;;;;;4976855;28;20049;-63
2023/05/19 06:46:01;;;;;;;11.57;5.82;;;10.10;99.90;;;;;;4985711;28;21667;-61
2023/05/19 06:48:26;;;;;;;12.45;6.32;;;10.10;99.90;;;;;;4972718;28;20088;-65
2023/05/19 06:50:52;;;;;;;12.73;5.63;;;10.20;99.90;;;;;;4989758;28;20117;-63
2023/05/19 06:53:20;;;;;;;14.63;5.60;;;10.20;99.90;;;;;;4984850;28;20042;-64
2023/05/19 06:55:45;;;;;;;12.80;5.82;;;10.20;99.90;;;;;;4989212;28;20444;-64
2023/05/19 06:58:11;;;;;;;10.98;4.75;;;10.30;99.90;;;;;;4971053;28;20046;-64
2023/05/19 07:00:36;;;;;;;11.38;5.30;;;10.30;99.90;;;;;;4986422;28;20034;-62
2023/05/19 07:03:02;;;;;;;14.52;5.30;;;10.40;99.90;;;;;;4978404;28;20042;-65
2023/05/19 07:05:28;;;;;;;10.50;5.00;;;10.50;99.90;;;;;;4966783;28;20046;-64
2023/05/19 07:07:53;;;;;;;8.88;5.07;;;10.50;99.90;;;;;;4987448;28;20042;-64
2023/05/19 07:10:20;;;;;;;11.38;5.22;;;10.60;99.90;;;;;;4970505;28;20042;-65
2023/05/19 07:12:46;;;;;;;9.48;4.45;;;10.60;99.90;;;;;;4984606;28;20050;-64
2023/05/19 07:15:11;;;;;;;11.30;5.03;;;10.70;99.90;;;;;;4988981;28;20377;-65
2023/05/19 07:17:37;;;;;;;10.60;4.57;;;10.70;99.90;;;;;;4965182;28;20368;-65
2023/05/19 07:20:05;;;;;;;10.18;4.55;;;10.80;99.90;;;;;;4971462;28;20119;-64
2023/05/19 07:22:33;;;;;;;11.73;4.63;;;10.80;99.90;;;;;;4985655;28;20068;-65
2023/05/19 07:24:59;;;;;;;12.38;4.43;;;10.90;99.90;;;;;;4987925;28;20066;-63
2023/05/19 07:27:25;;;;;;;10.57;4.68;;;10.90;99.90;;;;;;4985121;28;20084;-65
2023/05/19 07:29:51;;;;;;;11.55;4.63;;;10.90;99.90;;;;;;4992628;28;20500;-64
2023/05/19 07:32:17;;;;;;;12.32;4.15;;;11.00;99.90;;;;;;4983281;28;20034;-65
2023/05/19 07:34:42;;;;;;;11.98;4.82;;;11.00;99.90;;;;;;4982995;28;20038;-64
2023/05/19 07:37:08;;;;;;;11.57;4.95;;;11.10;99.90;;;;;;4982313;28;20038;-64
2023/05/19 07:39:34;;;;;;;6.93;3.42;;;11.10;99.90;;;;;;4992113;28;20100;-65
2023/05/19 07:42:00;;;;;;;14.82;3.95;;;11.10;99.90;;;;;;4983025;28;20053;-62
2023/05/19 07:44:26;;;;;;;11.57;4.63;;;11.20;99.90;;;;;;4991680;28;20035;-64
2023/05/19 07:46:53;;;;;;;10.50;3.75;;;11.30;99.90;;;;;;4992719;28;20038;-64
2023/05/19 07:49:19;;;;;;;9.43;3.85;;;11.40;99.90;;;;;;4991548;28;20034;-64
2023/05/19 07:51:45;;;;;;;11.07;3.58;;;11.50;99.90;;;;;;4991720;28;20648;-63
2023/05/19 07:54:10;;;;;;;11.05;4.10;;;11.50;99.90;;;;;;4981927;28;20088;-65
2023/05/19 07:56:36;;;;;;;9.73;3.60;;;11.70;99.90;;;;;;4993337;28;20042;-65
2023/05/19 07:59:02;;;;;;;12.98;4.63;;;11.70;99.90;;;;;;4993292;28;20512;-65
2023/05/19 08:01:29;;;;;;;9.20;3.22;;;11.80;99.90;;;;;;4991779;28;20041;-64
2023/05/19 08:03:55;;;;;;;8.65;3.50;;;11.90;99.90;;;;;;4992909;28;20428;-62
2023/05/19 08:06:21;;;;;;;10.30;3.75;;;12.00;99.90;;;;;;4988826;28;20038;-65
2023/05/19 08:08:47;;;;;;;11.32;3.55;;;12.10;99.90;;;;;;4985867;28;20130;-65
2023/05/19 08:11:12;;;;;;;9.68;3.10;;;12.20;99.90;;;;;;4990468;28;20073;-65
2023/05/19 08:13:38;;;;;;;9.98;3.40;;;12.30;99.90;;;;;;4992824;28;20441;-64
2023/05/19 08:16:04;;;;;;;9.27;2.90;;;12.40;99.90;;;;;;4977271;28;20043;-64
2023/05/19 08:18:30;;;;;;;8.25;3.08;;;12.60;99.90;;;;;;4991034;28;20089;-65
2023/05/19 08:20:55;;;;;;;9.35;3.10;;;12.80;99.90;;;;;;4990070;28;20042;-63
2023/05/19 08:23:21;;;;;;;12.68;3.30;;;13.00;99.90;;;;;;4991892;28;20042;-65
2023/05/19 08:25:47;;;;;;;7.32;2.90;;;13.20;99.90;;;;;;4991950;28;20030;-64
2023/05/19 08:28:12;;;;;;;7.45;3.08;;;13.50;99.90;;;;;;4951718;28;1072766;-65
2023/05/19 08:30:38;;;;;;;7.63;3.22;;;13.80;99.90;;;;;;4979372;28;20122;-64
2023/05/19 08:33:04;;;;;;;11.40;3.70;;;14.10;99.90;;;;;;4991361;28;20042;-63
2023/05/19 08:35:29;;;;;;;10.13;3.67;;;14.20;99.90;;;;;;4993285;28;20433;-65
2023/05/19 08:37:55;;;;;;;12.13;3.00;;;14.40;99.90;;;;;;4993997;28;20064;-65
2023/05/19 08:40:22;;;;;;;10.48;3.45;;;14.70;99.90;;;;;;4993842;28;20034;-65
2023/05/19 08:42:48;;;;;;;8.63;2.90;;;15.00;99.90;;;;;;4992123;28;20531;-64
2023/05/19 08:45:14;;;;;;;6.15;2.53;;;15.20;99.90;;;;;;4991335;28;20488;-65
2023/05/19 08:47:45;;;;;;;5.80;2.42;;;15.30;99.90;;;;;;4983944;28;20065;-65
2023/05/19 08:50:18;;;;;;;8.48;3.03;;;15.40;99.90;;;;;;4987192;28;20493;-65
2023/05/19 08:53:21;;;;;;;9.32;2.83;;;15.50;99.90;;;;;;4993553;28;20122;-65
2023/05/19 08:55:52;;;;;;;6.53;2.67;;;15.60;99.90;;;;;;4983161;28;20061;-65
2023/05/19 08:58:19;;;;;;;10.07;3.05;;;15.60;99.90;;;;;;4992817;28;20065;-65
2023/05/19 09:00:46;;;;;;;10.52;3.00;;;15.80;99.90;;;;;;4993286;28;20405;-64
2023/05/19 09:03:12;;;;;;;9.88;2.63;;;15.90;99.90;;;;;;4993133;28;20031;-65
2023/05/19 09:05:38;;;;;;;9.63;3.30;;;16.10;99.90;;;;;;4992995;28;20096;-65
2023/05/19 09:08:04;;;;;;;11.02;3.28;;;16.30;99.90;;;;;;4983976;28;20092;-65
2023/05/19 09:10:29;;;;;;;6.30;2.80;;;16.70;99.90;;;;;;4993201;28;20489;-64
2023/05/19 09:12:55;;;;;;;8.07;3.10;;;17.10;99.90;;;;;;4991652;28;20050;-64
2023/05/19 09:15:26;;;;;;;8.23;2.53;;;17.50;99.90;;;;;;4988597;28;20133;-63
2023/05/19 09:18:06;;;;;;;7.57;2.92;;;17.80;99.90;;;;;;4982555;28;20050;-64
2023/05/19 09:20:31;;;;;;;7.13;2.80;;;18.10;99.80;;;;;;4981201;28;20056;-65
2023/05/19 09:22:59;;;;;;;9.85;3.03;;;18.30;99.60;;;;;;4975111;28;20050;-65
2023/05/19 09:25:25;;;;;;;9.73;2.83;;;18.50;99.20;;;;;;4979447;28;20379;-65
2023/05/19 09:27:53;;;;;;;9.57;2.65;;;18.70;98.80;;;;;;4975154;28;20468;-65
2023/05/19 09:30:19;;;;;;;5.85;2.30;;;18.90;97.50;;;;;;4991644;28;20586;-65
2023/05/19 09:32:45;;;;;;;9.25;2.53;;;19.00;97.30;;;;;;4992240;28;20038;-65
2023/05/19 09:35:16;;;;;;;9.10;2.53;;;19.00;95.70;;;;;;4990943;28;20488;-65
2023/05/19 09:37:42;;;;;;;9.00;2.40;;;18.90;94.10;;;;;;4971982;28;20408;-65
2023/05/19 09:40:12;;;;;;;12.02;3.08;;;19.00;94.80;;;;;;4990172;28;20503;-65
2023/05/19 09:42:38;;;;;;;10.27;2.78;;;19.10;94.10;;;;;;4974505;28;21767;-65
2023/05/19 09:45:04;;;;;;;8.57;2.75;;;19.30;93.80;;;;;;4988500;28;20045;-65
2023/05/19 09:47:37;;;;;;;6.78;2.92;;;19.30;92.70;;;;;;4976752;28;20046;-66
2023/05/19 09:50:07;;;;;;;4.80;2.28;;;19.40;91.70;;;;;;4984778;28;20049;-65
2023/05/19 09:52:43;;;;;;;7.13;2.70;;;19.40;92.50;;;;;;4976064;28;20182;-65
2023/05/19 09:55:10;;;;;;;8.27;2.60;;;19.60;91.50;;;;;;4983418;28;20039;-65
2023/05/19 09:57:37;;;;;;;6.47;2.50;;;19.70;93.00;;;;;;4990010;28;20046;-65
2023/05/19 10:00:11;;;;;;;11.75;2.88;;;19.90;92.50;;;;;;4971448;28;20546;-65
2023/05/19 10:02:41;;;;;;;11.23;3.08;;;19.90;90.90;;;;;;4991546;28;20066;-65
2023/05/19 10:05:09;;;;;;;7.53;2.45;;;19.80;91.20;;;;;;4991358;28;20034;-65
2023/05/19 10:07:36;;;;;;;8.15;2.78;;;19.80;91.30;;;;;;4988420;28;20093;-65
2023/05/19 10:10:02;;;;;;;6.47;2.67;;;19.90;91.20;;;;;;4986917;28;20050;-65
2023/05/19 10:12:29;;;;;;;8.95;2.80;;;20.00;90.90;;;;;;4991015;28;20405;-65
2023/05/19 10:14:55;;;;;;;8.13;2.58;;;20.00;90.60;;;;;;4990501;28;20521;-65
2023/05/19 10:17:22;;;;;;;6.78;2.40;;;20.10;89.60;;;;;;4986374;28;20049;-65
2023/05/19 10:19:51;;;;;;;7.65;2.95;;;20.20;88.70;;;;;;4974547;28;20050;-65
2023/05/19 10:22:17;;;;;;;7.22;2.65;;;20.40;88.50;;;;;;4988561;28;20042;-65
2023/05/19 10:24:43;;;;;;;7.90;3.10;;;20.50;87.20;;;;;;4983613;28;20044;-65
2023/05/19 10:27:11;;;;;;;6.30;2.40;;;20.50;86.60;;;;;;4983289;28;20048;-65
2023/05/19 10:29:47;;;;;;;6.65;2.58;;;20.60;86.00;;;;;;4991578;28;20046;-65
2023/05/19 10:32:17;;;;;;;6.07;2.50;;;20.70;83.80;;;;;;4989145;28;20100;-65
2023/05/19 10:35:15;;;;;;;7.35;2.35;;;20.90;83.40;;;;;;4986514;28;20085;-65
2023/05/19 10:37:54;;;;;;;7.53;2.58;;;21.00;80.90;;;;;;4941330;28;20367;-65
2023/05/19 10:40:25;;;;;;;3.60;2.35;;;21.00;83.00;;;;;;4990175;28;20496;-65
2023/05/19 10:43:06;;;;;;;7.07;2.40;;;21.00;82.10;;;;;;4988822;28;20049;-65
2023/05/19 10:45:39;;;;;;;9.95;2.75;;;21.00;77.60;;;;;;4989331;28;20034;-65
2023/05/19 10:48:09;;;;;;;7.57;2.50;;;20.80;82.00;;;;;;4988717;28;20164;-65
2023/05/19 10:50:36;;;;;;;5.88;2.40;;;20.70;82.40;;;;;;4989795;28;20412;-65
2023/05/19 10:53:02;;;;;;;6.90;2.30;;;20.60;81.10;;;;;;4987134;28;20046;-66
2023/05/19 10:55:49;;;;;;;7.35;2.35;;;20.60;80.60;;;;;;4988031;28;20046;-65
2023/05/19 10:58:34;;;;;;;7.43;2.60;;;20.60;79.00;;;;;;4987947;28;20608;-65
2023/05/19 11:01:00;;;;;;;7.72;2.55;;;20.60;79.40;;;;;;4986071;28;20035;-65
2023/05/19 11:03:27;;;;;;;8.15;2.67;;;20.80;79.70;;;;;;4991938;28;20046;-65
2023/05/19 11:06:20;;;;;;;9.32;2.25;;;21.00;79.20;;;;;;4990394;28;20034;-65
2023/05/19 11:08:49;;;;;;;4.80;2.30;;;21.10;77.50;;;;;;4988140;28;20129;-65
2023/05/19 11:11:15;;;;;;;6.55;2.67;;;21.40;79.40;;;;;;4990881;28;20052;-65
2023/05/19 11:13:50;;;;;;;8.77;3.00;;;21.60;78.20;;;;;;4983580;28;20046;-65
2023/05/19 11:16:35;;;;;;;8.23;2.70;;;21.70;76.60;;;;;;4989975;28;20054;-65
2023/05/19 11:19:01;;;;;;;8.55;2.78;;;21.70;76.50;;;;;;4991317;28;20049;-65
2023/05/19 11:22:06;;;;;;;7.78;3.17;;;21.80;77.80;;;;;;4981791;28;20046;-65
2023/05/19 11:24:36;;;;;;;5.30;2.20;;;21.90;75.40;;;;;;4967539;28;20597;-65
2023/05/19 11:27:24;;;;;;;11.35;2.80;;;21.90;75.50;;;;;;4987358;28;20126;-65
2023/05/19 11:29:50;;;;;;;6.03;2.47;;;21.90;72.40;;;;;;4998513;22;20054;-63
2023/05/19 11:32:18;;;;;;;8.65;2.85;;;21.90;74.40;;;;;;5000539;28;20092;-63
2023/05/19 11:34:44;;;;;;;7.47;2.38;;;21.80;73.80;;;;;;4986517;28;20045;-63
2023/05/19 11:37:10;;;;;;;5.78;2.75;;;21.70;73.60;;;;;;4993066;28;20133;-62
2023/05/19 11:39:38;;;;;;;7.35;2.65;;;21.60;73.10;;;;;;4993884;28;20044;-63
2023/05/19 11:42:03;;;;;;;7.25;2.50;;;21.60;72.60;;;;;;4998474;28;20050;-62
2023/05/19 11:44:30;;;;;;;6.57;2.45;;;21.60;72.80;;;;;;5010019;28;20076;-63
2023/05/19 11:46:59;;;;;;;8.95;2.30;;;21.60;72.50;;;;;;5010450;28;20518;-63
2023/05/19 11:49:28;;;;;;;6.03;2.67;;;21.70;72.40;;;;;;5007239;28;20035;-64
2023/05/19 11:51:53;;;;;;;7.70;2.88;;;21.70;71.30;;;;;;4991716;28;20052;-63
2023/05/19 11:54:19;;;;;;;7.07;2.38;;;21.60;72.30;;;;;;5006215;28;20054;-64
2023/05/19 11:56:46;;;;;;;7.85;2.63;;;21.70;73.30;;;;;;5008767;28;20038;-63
2023/05/19 11:59:11;;;;;;;6.85;2.40;;;21.90;74.20;;;;;;5007853;28;20037;-64
2023/05/19 12:01:37;;;;;;;6.57;2.50;;;22.30;74.10;;;;;;5010462;28;20045;-63
2023/05/19 12:04:09;;;;;;;6.47;2.17;;;22.40;73.30;;;;;;5010297;28;20077;-63
2023/05/19 12:06:35;;;;;;;6.80;2.40;;;22.40;71.50;;;;;;5008429;28;20061;-63
2023/05/19 12:09:04;;;;;;;7.55;2.40;;;22.50;71.50;;;;;;4998575;28;20029;-63
2023/05/19 12:11:30;;;;;;;7.32;2.45;;;22.40;70.80;;;;;;5010173;28;20105;-67
2023/05/19 12:14:00;;;;;;;8.07;2.45;;;22.20;69.90;;;;;;4992130;28;20065;-64
2023/05/19 12:16:35;;;;;;;4.60;2.33;;;22.10;69.70;;;;;;5008536;28;20057;-63
2023/05/19 12:19:03;;;;;;;10.05;2.53;;;22.00;69.10;;;;;;4988459;28;20038;-63
2023/05/19 12:21:30;;;;;;;7.80;2.33;;;21.90;69.40;;;;;;4999292;28;20041;-63
2023/05/19 12:23:55;;;;;;;5.60;2.47;;;22.00;69.40;;;;;;5004187;28;20048;-67
2023/05/19 12:26:21;;;;;;;6.35;2.42;;;22.00;69.20;;;;;;5008573;28;20034;-62
2023/05/19 12:28:49;;;;;;;6.53;2.35;;;22.00;69.60;;;;;;5012728;28;20471;-63
2023/05/19 12:31:15;;;;;;;6.18;2.35;;;22.00;69.70;;;;;;4993016;28;20037;-63
2023/05/19 12:33:42;;;;;;;6.35;2.40;;;21.90;69.70;;;;;;5006980;28;20108;-62
2023/05/19 12:36:08;;;;;;;6.72;2.58;;;21.90;69.10;;;;;;4992385;28;20076;-62
2023/05/19 12:38:36;;;;;;;6.25;2.30;;;22.00;68.60;;;;;;5008642;28;20121;-62
2023/05/19 12:41:02;;;;;;;6.93;2.15;;;22.00;68.50;;;;;;5003358;28;20046;-62
2023/05/19 12:43:27;;;;;;;4.70;1.98;;;22.10;68.20;;;;;;5013295;28;20060;-62
2023/05/19 12:45:53;;;;;;;4.90;2.20;;;22.20;68.10;;;;;;5012688;28;20041;-62
2023/05/19 12:48:21;;;;;;;10.07;2.75;;;22.30;67.80;;;;;;5011346;28;20046;-63
2023/05/19 12:50:48;;;;;;;6.55;2.20;;;22.20;68.00;;;;;;5007734;28;20037;-63